Time;durP1;ratioP1;P1;durP2;ratioP2;P2;SDS_P1;SDS_P2;PMS_P1;PMS_P2;Temp;Humidity;BMP_temperature;BMP_pressure;BME280_temperature;BME280_humidity;BME280_pressure;Samples;Min_cycle;Max_cycle;Signal;HPM_P1;HPM_P2
2021/08/22 00:01:16;;;;;;;5.05;3.58;;;;;;;27.64;47.66;101317.81;144992;572;6002;-79
2021/08/22 00:03:42;;;;;;;3.53;3.15;;;;;;;27.62;47.97;101320.53;144993;626;6002;-80
2021/08/22 00:06:09;;;;;;;3.83;3.30;;;;;;;27.60;47.72;101316.16;144993;675;6002;-80
2021/08/22 00:08:39;;;;;;;6.62;3.30;;;;;;;27.62;47.87;101322.34;144993;619;6002;-80
2021/08/22 00:11:06;;;;;;;3.65;3.20;;;;;;;27.54;47.76;101319.00;144993;579;6002;-80
2021/08/22 00:13:33;;;;;;;5.70;3.50;;;;;;;27.55;48.09;101324.31;144993;609;6002;-80
2021/08/22 00:16:01;;;;;;;3.60;3.25;;;;;;;27.46;47.90;101320.16;144993;598;6002;-80
2021/08/22 00:18:27;;;;;;;3.97;2.90;;;;;;;27.44;48.23;101327.31;144993;582;6002;-80
2021/08/22 00:20:54;;;;;;;4.37;3.28;;;;;;;27.35;47.94;101318.75;144993;579;6002;-80
2021/08/22 00:23:21;;;;;;;5.15;3.35;;;;;;;27.38;48.30;101326.62;144993;578;6002;-80
2021/08/22 00:25:47;;;;;;;4.18;2.95;;;;;;;27.39;48.02;101321.25;144993;585;6002;-79
2021/08/22 00:28:14;;;;;;;4.03;3.12;;;;;;;27.33;48.12;101325.00;144993;612;6002;-80
2021/08/22 00:30:40;;;;;;;4.00;3.30;;;;;;;27.28;48.36;101331.34;144993;572;6002;-78
2021/08/22 00:33:07;;;;;;;5.15;3.10;;;;;;;27.30;48.36;101327.75;144993;571;6002;-81
2021/08/22 00:35:33;;;;;;;4.57;3.15;;;;;;;27.25;48.12;101331.41;144992;598;6002;-79
2021/08/22 00:38:00;;;;;;;4.12;2.97;;;;;;;27.30;48.48;101330.41;144992;648;6002;-80
2021/08/22 00:40:26;;;;;;;8.10;3.50;;;;;;;27.07;48.37;101331.06;144993;581;6002;-79
2021/08/22 00:42:53;;;;;;;3.37;3.08;;;;;;;27.01;48.42;101333.03;144993;571;6002;-79
2021/08/22 00:45:19;;;;;;;3.95;3.37;;;;;;;26.90;49.00;101338.66;144993;641;6002;-80
2021/08/22 00:47:47;;;;;;;3.67;3.22;;;;;;;26.94;48.89;101333.19;144993;717;6002;-79
2021/08/22 00:50:21;;;;;;;6.32;3.42;;;;;;;26.95;48.79;101331.44;144993;609;6002;-79
2021/08/22 00:52:50;;;;;;;3.90;3.50;;;;;;;27.01;48.72;101333.03;144993;586;6002;-81
2021/08/22 00:55:17;;;;;;;3.47;3.17;;;;;;;27.07;48.80;101323.06;144993;598;6002;-79
2021/08/22 00:57:44;;;;;;;5.40;3.37;;;;;;;27.12;48.75;101330.91;144994;569;5002;-80
2021/08/22 01:00:12;;;;;;;4.03;3.10;;;;;;;27.10;48.49;101333.62;144994;670;5002;-80
2021/08/22 01:03:02;;;;;;;3.80;3.20;;;;;;;26.97;48.75;101327.78;144994;576;5002;-79
2021/08/22 01:06:06;;;;;;;5.60;3.58;;;;;;;26.91;49.03;101329.75;144994;564;5002;-79
2021/08/22 01:08:36;;;;;;;5.32;3.70;;;;;;;26.87;48.69;101330.75;144994;569;5002;-79
2021/08/22 01:11:08;;;;;;;6.70;3.60;;;;;;;26.89;48.56;101335.13;144994;571;5002;-80
2021/08/22 01:13:47;;;;;;;6.12;3.30;;;;;;;26.89;49.24;101336.94;144994;575;5002;-80
2021/08/22 01:16:14;;;;;;;4.45;3.40;;;;;;;26.89;49.67;101342.25;144994;606;5002;-80
2021/08/22 01:18:44;;;;;;;5.03;3.30;;;;;;;26.82;50.06;101338.00;144994;662;5002;-79
2021/08/22 01:21:16;;;;;;;5.32;3.50;;;;;;;26.66;50.09;101333.13;144994;564;5002;-79
2021/08/22 01:24:03;;;;;;;5.62;3.60;;;;;;;26.71;49.78;101331.22;144994;587;5002;-80
2021/08/22 01:26:35;;;;;;;6.43;3.72;;;;;;;26.80;49.49;101332.72;144994;576;5002;-79
2021/08/22 01:29:03;;;;;;;5.15;3.58;;;;;;;26.84;49.77;101328.22;144994;589;5002;-80
2021/08/22 01:31:43;;;;;;;6.40;3.80;;;;;;;26.83;49.39;101337.09;144994;587;5002;-80
2021/08/22 01:34:11;;;;;;;4.20;3.60;;;;;;;26.85;49.61;101333.47;144994;608;5002;-81
2021/08/22 01:36:39;;;;;;;4.10;3.60;;;;;;;26.90;49.18;101336.88;144994;563;5002;-81
2021/08/22 01:39:06;;;;;;;3.95;3.55;;;;;;;26.94;49.00;101327.88;144994;593;5002;-80
2021/08/22 01:41:33;;;;;;;4.10;3.45;;;;;;;27.00;49.28;101333.97;144994;564;5002;-78
2021/08/22 01:44:00;;;;;;;4.45;3.40;;;;;;;27.06;48.92;101341.75;144994;567;5002;-81
2021/08/22 01:46:32;;;;;;;4.50;3.78;;;;;;;27.05;48.96;101337.38;144994;618;5002;-78
2021/08/22 01:49:00;;;;;;;5.65;3.70;;;;;;;27.02;49.02;101335.66;144994;620;5003;-79
2021/08/22 01:51:34;;;;;;;3.87;3.37;;;;;;;26.95;48.88;101342.94;144994;575;5002;-80
2021/08/22 01:54:07;;;;;;;5.90;3.75;;;;;;;26.95;48.95;101347.41;144994;615;5002;-79
2021/08/22 01:56:35;;;;;;;4.32;3.92;;;;;;;26.94;49.08;101340.34;144994;615;5003;-79
2021/08/22 01:59:04;;;;;;;4.32;3.55;;;;;;;26.99;48.87;101335.75;144994;585;5002;-80
2021/08/22 02:01:31;;;;;;;6.68;3.87;;;;;;;27.02;48.81;101346.31;144994;627;5002;-79
2021/08/22 02:04:35;;;;;;;4.20;3.70;;;;;;;26.94;48.90;101343.00;144994;696;5002;-79
2021/08/22 02:07:21;;;;;;;5.18;3.70;;;;;;;26.67;48.97;101340.19;144994;628;5004;-78
2021/08/22 02:10:19;;;;;;;7.47;3.83;;;;;;;26.56;49.32;101336.91;144994;581;5002;-78
2021/08/22 02:12:48;;;;;;;4.32;3.65;;;;;;;26.48;49.32;101329.13;144994;705;5004;-79
2021/08/22 02:15:23;;;;;;;4.60;3.50;;;;;;;26.51;49.52;101337.03;144994;589;5004;-80
2021/08/22 02:18:00;;;;;;;5.05;3.70;;;;;;;26.50;49.93;101342.41;144994;595;5004;-79
2021/08/22 02:20:27;;;;;;;4.78;3.30;;;;;;;26.49;49.88;101346.00;144994;765;5004;-80
2021/08/22 02:22:55;;;;;;;5.60;3.47;;;;;;;26.51;49.62;101349.47;144994;591;5004;-80
2021/08/22 02:25:24;;;;;;;3.87;3.40;;;;;;;26.52;49.56;101351.22;144994;641;5004;-77
2021/08/22 02:27:51;;;;;;;5.90;3.47;;;;;;;26.50;49.70;101350.38;144994;591;5004;-79
2021/08/22 02:30:17;;;;;;;4.35;3.25;;;;;;;26.53;49.43;101355.63;144994;578;5004;-79
2021/08/22 02:32:43;;;;;;;4.45;3.62;;;;;;;26.52;49.33;101348.56;144994;629;5004;-79
2021/08/22 02:35:10;;;;;;;5.97;3.60;;;;;;;26.62;48.93;101347.41;144994;695;5004;-79
2021/08/22 02:37:37;;;;;;;3.60;3.30;;;;;;;26.54;49.63;101350.28;144994;571;5004;-78
2021/08/22 02:40:04;;;;;;;4.28;3.50;;;;;;;26.56;49.43;101352.88;144994;571;5004;-78
2021/08/22 02:42:30;;;;;;;5.03;3.67;;;;;;;26.45;49.26;101363.81;144994;591;5004;-79
2021/08/22 02:44:56;;;;;;;5.25;3.70;;;;;;;26.47;49.30;101361.12;144994;593;5004;-80
2021/08/22 02:47:23;;;;;;;3.83;3.28;;;;;;;26.43;49.42;101353.22;144994;734;5004;-79
2021/08/22 02:49:52;;;;;;;4.35;3.33;;;;;;;26.53;49.23;101350.31;144994;572;5004;-80
2021/08/22 02:52:20;;;;;;;3.92;3.42;;;;;;;26.59;49.19;101345.69;144994;749;5004;-78
2021/08/22 02:54:46;;;;;;;5.32;3.47;;;;;;;26.53;49.27;101337.00;144994;587;5004;-79
2021/08/22 02:57:15;;;;;;;5.60;3.47;;;;;;;26.53;48.89;101327.22;144994;602;5004;-79
2021/08/22 02:59:41;;;;;;;4.28;3.60;;;;;;;26.62;49.06;101329.63;144993;594;5004;-78
2021/08/22 03:02:08;;;;;;;3.97;3.50;;;;;;;26.59;49.15;101326.19;144994;651;5002;-77
2021/08/22 03:04:34;;;;;;;6.30;3.50;;;;;;;26.55;48.65;101320.09;144994;576;5002;-80
2021/08/22 03:07:01;;;;;;;4.07;3.40;;;;;;;26.54;49.00;101322.78;144994;744;5002;-79
2021/08/22 03:09:27;;;;;;;4.95;3.50;;;;;;;26.49;49.24;101324.69;144994;563;5002;-80
2021/08/22 03:11:54;;;;;;;4.35;3.65;;;;;;;26.39;49.34;101311.63;144994;630;5002;-81
2021/08/22 03:14:20;;;;;;;4.93;3.30;;;;;;;26.46;49.42;101322.13;144993;598;5002;-80
2021/08/22 03:16:47;;;;;;;3.97;3.40;;;;;;;26.52;49.21;101314.84;144994;563;5002;-80
2021/08/22 03:19:13;;;;;;;5.62;3.65;;;;;;;26.51;49.21;101312.22;144994;580;5002;-80
2021/08/22 03:21:45;;;;;;;4.40;4.00;;;;;;;26.55;49.20;101313.84;144994;569;5002;-80
2021/08/22 03:24:12;;;;;;;5.97;4.00;;;;;;;26.51;49.99;101314.87;144994;571;5002;-79
2021/08/22 03:26:39;;;;;;;5.40;3.92;;;;;;;26.54;49.22;101318.31;144994;579;5002;-80
2021/08/22 03:29:05;;;;;;;8.18;4.60;;;;;;;26.61;49.16;101317.25;144994;563;5002;-80
2021/08/22 03:31:32;;;;;;;6.15;4.22;;;;;;;26.55;51.04;101320.09;144994;694;5002;-80
2021/08/22 03:33:59;;;;;;;7.43;4.90;;;;;;;26.52;50.58;101328.16;144994;564;5002;-82
2021/08/22 03:36:25;;;;;;;6.65;5.10;;;;;;;26.48;52.13;101330.94;144994;685;5002;-80
2021/08/22 03:38:52;;;;;;;7.00;4.87;;;;;;;26.49;52.15;101325.56;144994;565;5002;-80
2021/08/22 03:41:18;;;;;;;6.12;5.18;;;;;;;26.37;52.96;101316.09;144994;646;5002;-81
2021/08/22 03:43:44;;;;;;;7.95;5.40;;;;;;;26.38;52.08;101319.66;144994;596;5002;-81
2021/08/22 03:46:11;;;;;;;8.52;5.50;;;;;;;26.32;51.95;101334.00;144994;745;5002;-81
2021/08/22 03:48:37;;;;;;;6.78;5.60;;;;;;;26.39;51.02;101332.94;144994;635;5002;-80
2021/08/22 03:51:04;;;;;;;7.20;5.50;;;;;;;26.39;52.70;101348.91;144994;624;5002;-80
2021/08/22 03:53:30;;;;;;;5.80;4.85;;;;;;;26.50;51.13;101345.06;144994;590;5002;-80
2021/08/22 03:55:57;;;;;;;7.90;5.37;;;;;;;26.52;51.78;101343.22;144994;652;5002;-79
2021/08/22 03:58:23;;;;;;;7.12;5.60;;;;;;;26.63;52.00;101349.16;144994;641;5002;-81
2021/08/22 04:00:50;;;;;;;8.32;6.28;;;;;;;26.69;50.61;101349.00;144994;566;5002;-79
2021/08/22 04:03:16;;;;;;;6.62;6.00;;;;;;;26.81;50.37;101341.63;144994;564;5002;-79
2021/08/22 04:05:42;;;;;;;6.87;6.20;;;;;;;26.86;50.46;101361.84;144994;571;5002;-79
2021/08/22 04:08:09;;;;;;;6.90;6.30;;;;;;;26.92;50.09;101366.16;144994;569;5002;-81
2021/08/22 04:10:36;;;;;;;7.55;6.03;;;;;;;26.98;50.36;101360.66;144994;685;5002;-79
2021/08/22 04:13:02;;;;;;;8.07;5.93;;;;;;;27.00;50.90;101360.59;144994;580;5002;-79
2021/08/22 04:15:29;;;;;;;9.38;6.30;;;;;;;26.99;52.07;101362.37;144994;591;5002;-80
2021/08/22 04:17:55;;;;;;;8.10;6.10;;;;;;;27.04;52.17;101362.25;144994;743;5002;-81
2021/08/22 04:20:23;;;;;;;6.93;5.85;;;;;;;27.11;50.26;101367.38;144994;574;5002;-79
2021/08/22 04:22:49;;;;;;;6.57;5.95;;;;;;;27.12;50.38;101371.78;144993;570;5002;-80
2021/08/22 04:25:15;;;;;;;7.72;6.07;;;;;;;27.17;50.93;101379.66;144994;592;5002;-80
2021/08/22 04:27:42;;;;;;;6.85;6.18;;;;;;;27.24;50.23;101377.66;144994;635;5002;-81
2021/08/22 04:30:12;;;;;;;6.65;5.62;;;;;;;27.23;51.12;101386.56;144994;566;5002;-80
2021/08/22 04:32:39;;;;;;;6.45;4.65;;;;;;;27.17;50.11;101384.09;144994;587;5002;-80
2021/08/22 04:35:08;;;;;;;6.40;4.78;;;;;;;27.01;50.59;101381.84;144994;590;5002;-80
2021/08/22 04:37:34;;;;;;;6.75;4.32;;;;;;;26.93;50.53;101379.44;144994;701;5002;-79
2021/08/22 04:40:01;;;;;;;5.03;4.32;;;;;;;26.96;50.20;101381.12;144994;580;5002;-79
2021/08/22 04:42:28;;;;;;;6.55;4.30;;;;;;;27.01;50.75;101387.19;144994;621;5002;-81
2021/08/22 04:44:55;;;;;;;10.52;4.75;;;;;;;27.10;50.27;101392.25;144994;585;5002;-80
2021/08/22 04:47:21;;;;;;;6.05;4.57;;;;;;;27.07;49.87;101392.34;144994;588;5003;-79
2021/08/22 04:49:49;;;;;;;6.45;4.12;;;;;;;26.88;50.44;101401.75;144994;610;5002;-80
2021/08/22 04:52:16;;;;;;;4.30;3.90;;;;;;;26.89;50.49;101401.72;144994;569;5002;-78
2021/08/22 04:54:44;;;;;;;5.85;4.07;;;;;;;26.88;50.24;101399.97;144994;634;5003;-79
2021/08/22 04:57:11;;;;;;;8.38;4.18;;;;;;;26.79;50.55;101414.44;144994;585;5002;-80
2021/08/22 04:59:37;;;;;;;8.80;4.60;;;;;;;26.71;50.54;101415.53;144994;679;5002;-80
2021/08/22 05:02:05;;;;;;;10.45;4.85;;;;;;;26.77;50.54;101416.25;144994;643;5002;-79
2021/08/22 05:04:32;;;;;;;6.45;4.47;;;;;;;26.83;50.50;101403.69;144994;577;5002;-80
2021/08/22 05:06:59;;;;;;;6.70;4.37;;;;;;;26.85;50.41;101408.03;144994;719;5002;-80
2021/08/22 05:09:25;;;;;;;5.22;4.25;;;;;;;26.89;50.31;101404.38;144994;641;5002;-79
2021/08/22 05:11:52;;;;;;;5.50;4.43;;;;;;;26.97;50.04;101418.38;144994;570;5002;-80
2021/08/22 05:14:18;;;;;;;4.97;4.47;;;;;;;27.04;50.27;101413.72;144994;670;5002;-80
2021/08/22 05:16:45;;;;;;;6.15;4.47;;;;;;;27.09;50.14;101416.28;144994;581;5002;-78
2021/08/22 05:19:11;;;;;;;4.87;3.97;;;;;;;27.21;49.87;101425.72;144994;571;5002;-79
2021/08/22 05:21:38;;;;;;;6.15;4.12;;;;;;;27.23;49.72;101421.22;144994;598;5002;-79
2021/08/22 05:24:05;;;;;;;5.25;4.00;;;;;;;27.26;49.75;101423.78;144994;641;5002;-80
2021/08/22 05:26:32;;;;;;;5.90;3.85;;;;;;;27.22;49.95;101422.12;144994;751;5002;-81
2021/08/22 05:28:58;;;;;;;4.90;4.40;;;;;;;27.19;49.28;101422.22;144994;563;5002;-79
2021/08/22 05:31:25;;;;;;;5.35;3.95;;;;;;;27.02;49.77;101425.38;144994;597;4566;-79
2021/08/22 05:33:51;;;;;;;6.07;4.00;;;;;;;27.13;50.08;101423.28;144994;579;4572;-79
2021/08/22 05:36:22;;;;;;;4.32;3.92;;;;;;;27.20;50.07;101429.28;144994;646;4572;-80
2021/08/22 05:38:52;;;;;;;6.15;4.00;;;;;;;27.31;49.99;101432.56;144992;585;6002;-78
2021/08/22 05:41:21;;;;;;;4.93;3.80;;;;;;;27.45;49.77;101440.16;144992;571;6002;-80
2021/08/22 05:43:48;;;;;;;7.05;4.28;;;;;;;27.46;50.27;101442.78;144992;588;6002;-79
2021/08/22 05:46:15;;;;;;;5.25;4.68;;;;;;;27.48;50.71;101446.28;144992;578;6002;-80
2021/08/22 05:48:41;;;;;;;6.32;4.32;;;;;;;27.45;51.23;101446.34;144992;574;6002;-78
2021/08/22 05:51:15;;;;;;;6.12;4.50;;;;;;;27.54;50.07;101445.22;144992;627;6002;-80
2021/08/22 05:53:43;;;;;;;5.45;4.20;;;;;;;27.74;49.84;101446.41;144992;594;6002;-80
2021/08/22 05:56:10;;;;;;;5.30;4.20;;;;;;;27.87;49.88;101439.75;144992;589;6002;-76
2021/08/22 05:58:37;;;;;;;5.10;4.15;;;;;;;27.98;49.39;101450.13;144992;615;6002;-78
2021/08/22 06:01:04;;;;;;;5.45;3.97;;;;;;;28.10;49.17;101441.75;144991;588;6002;-77
2021/08/22 06:03:31;;;;;;;10.93;4.65;;;;;;;28.20;49.08;101445.84;144992;583;6002;-79
2021/08/22 06:05:58;;;;;;;4.78;3.83;;;;;;;28.32;48.82;101443.72;144992;566;6002;-79
2021/08/22 06:08:25;;;;;;;4.20;3.75;;;;;;;28.44;48.53;101450.44;144992;565;6002;-79
2021/08/22 06:10:51;;;;;;;4.40;4.00;;;;;;;28.50;48.45;101448.44;144992;576;6002;-77
2021/08/22 06:13:19;;;;;;;5.60;3.70;;;;;;;28.59;48.47;101450.84;144992;610;6002;-81
2021/08/22 06:15:45;;;;;;;4.53;3.80;;;;;;;28.74;48.33;101446.75;144992;585;6002;-82
2021/08/22 06:18:12;;;;;;;7.97;4.00;;;;;;;28.89;48.14;101448.03;144992;570;6002;-80
2021/08/22 06:20:49;;;;;;;6.40;4.40;;;;;;;29.03;47.70;101452.88;144992;580;6002;-79
2021/08/22 06:23:27;;;;;;;5.35;4.00;;;;;;;29.11;47.78;101449.91;144992;588;6002;-76
2021/08/22 06:26:22;;;;;;;6.72;4.25;;;;;;;29.28;47.83;101458.22;144992;564;6002;-80
2021/08/22 06:29:16;;;;;;;5.00;4.00;;;;;;;29.37;47.58;101462.38;144992;619;6004;-80
2021/08/22 06:31:52;;;;;;;7.12;4.70;;;;;;;29.59;47.43;101461.53;144991;595;6000;-78
2021/08/22 06:34:28;;;;;;;4.55;4.07;;;;;;;29.78;46.92;101459.03;144992;585;6002;-82
2021/08/22 06:37:17;;;;;;;4.67;4.23;;;;;;;29.97;46.89;101462.78;144992;569;6002;-81
2021/08/22 06:39:55;;;;;;;5.87;4.62;;;;;;;30.14;46.28;101463.87;144992;611;6004;-80
2021/08/22 06:42:29;;;;;;;5.43;4.50;;;;;;;30.29;46.22;101467.72;144992;573;6002;-80
2021/08/22 06:45:08;;;;;;;5.20;4.25;;;;;;;30.41;46.00;101463.72;144992;581;6002;-80
2021/08/22 06:47:41;;;;;;;10.82;4.53;;;;;;;30.54;46.16;101457.78;144992;570;6002;-86
2021/08/22 06:50:10;;;;;;;6.60;4.35;;;;;;;30.59;46.21;101459.38;144992;563;6002;-83
2021/08/22 06:52:37;;;;;;;6.12;4.05;;;;;;;30.65;46.15;101460.00;144992;606;6002;-79
2021/08/22 06:55:07;;;;;;;5.28;4.10;;;;;;;30.59;45.29;101465.59;144992;572;6002;-78
2021/08/22 06:57:44;;;;;;;5.35;4.00;;;;;;;30.55;45.64;101458.66;144992;566;6002;-76
2021/08/22 07:00:54;;;;;;;4.65;4.00;;;;;;;30.63;45.94;101458.34;144992;587;6002;-80
2021/08/22 07:03:27;;;;;;;7.20;4.37;;;;;;;30.63;45.79;101461.88;144992;588;6002;-77
2021/08/22 07:05:55;;;;;;;4.77;4.10;;;;;;;30.70;45.82;101460.69;144992;582;6002;-80
2021/08/22 07:08:36;;;;;;;5.12;3.90;;;;;;;30.79;45.97;101461.22;144992;569;6002;-79
2021/08/22 07:11:23;;;;;;;5.82;3.87;;;;;;;30.95;45.83;101464.09;144992;596;6002;-80
2021/08/22 07:14:00;;;;;;;4.47;4.00;;;;;;;31.08;45.73;101462.62;144992;591;6002;-81
2021/08/22 07:16:38;;;;;;;5.55;4.30;;;;;;;31.17;45.20;101464.06;144992;567;6002;-80
2021/08/22 07:19:06;;;;;;;6.40;4.20;;;;;;;31.15;43.86;101458.75;144992;633;6002;-79
2021/08/22 07:21:34;;;;;;;6.30;4.15;;;;;;;31.00;45.40;101460.28;144992;590;6002;-79
2021/08/22 07:24:01;;;;;;;5.07;4.18;;;;;;;30.99;45.16;101455.91;144992;690;6002;-80
2021/08/22 07:26:27;;;;;;;5.35;4.40;;;;;;;31.02;45.22;101452.19;144992;564;6002;-80
2021/08/22 07:28:54;;;;;;;4.90;4.40;;;;;;;31.01;45.50;101459.38;144992;591;6002;-80
2021/08/22 07:31:20;;;;;;;5.03;4.12;;;;;;;31.03;44.99;101457.47;144992;594;6002;-80
2021/08/22 07:33:47;;;;;;;4.50;4.10;;;;;;;30.96;45.65;101458.72;144992;584;6002;-79
2021/08/22 07:36:14;;;;;;;8.50;3.95;;;;;;;30.90;44.89;101458.94;144992;588;6002;-80
2021/08/22 07:38:40;;;;;;;5.68;4.00;;;;;;;30.89;45.97;101455.41;144992;579;6002;-79
2021/08/22 07:41:07;;;;;;;7.03;3.92;;;;;;;30.97;45.45;101457.75;144992;587;6002;-79
2021/08/22 07:43:34;;;;;;;6.87;3.53;;;;;;;30.98;45.46;101456.81;144992;563;6002;-80
2021/08/22 07:46:01;;;;;;;4.40;3.92;;;;;;;31.11;45.60;101447.28;144992;577;6002;-79
2021/08/22 07:48:27;;;;;;;5.87;3.40;;;;;;;31.07;45.09;101445.69;144992;612;6002;-81
2021/08/22 07:50:54;;;;;;;5.00;3.80;;;;;;;31.11;44.93;101441.91;144992;576;6002;-80
2021/08/22 07:53:20;;;;;;;5.00;3.53;;;;;;;31.20;45.88;101439.78;144992;579;6002;-80
2021/08/22 07:55:48;;;;;;;4.47;3.60;;;;;;;31.16;43.80;101448.88;144992;640;6002;-80
2021/08/22 07:58:15;;;;;;;3.85;3.47;;;;;;;31.13;45.77;101446.34;144992;631;6002;-81
2021/08/22 08:00:42;;;;;;;4.15;3.47;;;;;;;31.13;45.45;101441.84;144992;579;6002;-80
2021/08/22 08:03:08;;;;;;;4.47;3.70;;;;;;;31.14;42.81;101437.37;144992;582;6002;-79
2021/08/22 08:05:36;;;;;;;3.83;3.53;;;;;;;31.00;42.03;101436.16;144992;583;6002;-80
2021/08/22 08:08:03;;;;;;;3.75;3.45;;;;;;;30.99;43.14;101441.59;144992;623;6002;-80
2021/08/22 08:10:29;;;;;;;5.32;3.40;;;;;;;31.03;45.16;101440.53;144992;589;6002;-80
2021/08/22 08:12:56;;;;;;;6.12;3.45;;;;;;;31.25;44.92;101443.13;144992;572;6002;-80
2021/08/22 08:15:22;;;;;;;3.50;3.00;;;;;;;31.40;44.64;101438.84;144992;593;6002;-80
2021/08/22 08:17:49;;;;;;;4.22;3.20;;;;;;;31.50;40.50;101428.53;144992;564;6002;-80
2021/08/22 08:20:15;;;;;;;4.72;3.58;;;;;;;31.56;44.75;101434.56;144992;648;6002;-79
2021/08/22 08:22:42;;;;;;;5.50;3.47;;;;;;;31.50;43.92;101442.84;144992;569;6002;-79
2021/08/22 08:25:10;;;;;;;3.97;3.10;;;;;;;31.69;43.94;101448.25;144992;580;6002;-80
2021/08/22 08:27:37;;;;;;;4.15;3.72;;;;;;;31.85;43.48;101443.03;144992;569;6002;-80
2021/08/22 08:30:04;;;;;;;5.10;4.40;;;;;;;31.94;43.82;101439.00;144992;585;6002;-80
2021/08/22 08:32:31;;;;;;;5.57;4.50;;;;;;;31.94;43.26;101447.91;144992;571;6002;-79
2021/08/22 08:34:58;;;;;;;5.72;4.65;;;;;;;31.67;43.79;101441.22;144992;575;6002;-79
2021/08/22 08:37:25;;;;;;;5.18;4.65;;;;;;;31.41;45.06;101446.81;144992;659;6002;-80
2021/08/22 08:39:51;;;;;;;5.62;5.07;;;;;;;31.11;45.84;101439.22;144992;596;6002;-79
2021/08/22 08:42:22;;;;;;;6.28;4.50;;;;;;;31.07;46.60;101440.31;144992;573;6002;-79
2021/08/22 08:44:51;;;;;;;5.72;4.37;;;;;;;31.17;45.59;101454.19;144992;569;6002;-80
2021/08/22 08:47:25;;;;;;;7.35;4.62;;;;;;;31.25;44.90;101448.47;144992;584;6002;-81
2021/08/22 08:50:13;;;;;;;5.70;5.10;;;;;;;30.97;45.01;101449.72;144992;658;6002;-78
2021/08/22 08:52:46;;;;;;;5.85;5.35;;;;;;;30.92;45.49;101447.19;144992;692;6002;-78
2021/08/22 08:55:38;;;;;;;6.15;4.90;;;;;;;30.90;45.29;101437.50;144992;653;6002;-80
2021/08/22 08:58:05;;;;;;;4.65;4.25;;;;;;;30.85;45.02;101448.41;144992;655;6002;-80
2021/08/22 09:00:34;;;;;;;5.00;4.50;;;;;;;30.80;45.93;101441.50;144992;598;6002;-81
2021/08/22 09:03:01;;;;;;;6.20;5.20;;;;;;;30.70;46.51;101441.94;144992;676;6002;-79
2021/08/22 09:06:02;;;;;;;7.30;4.82;;;;;;;30.59;46.74;101436.13;144992;729;6002;-79
2021/08/22 09:09:26;;;;;;;5.20;4.80;;;;;;;30.53;46.48;101431.94;144992;619;6005;-79
2021/08/22 09:12:29;;;;;;;6.30;5.68;;;;;;;30.63;46.50;101432.41;144992;581;6004;-81
2021/08/22 09:15:43;;;;;;;6.22;5.20;;;;;;;30.78;46.04;101438.03;144992;578;6004;-79
2021/08/22 09:18:47;;;;;;;6.20;4.35;;;;;;;30.91;45.30;101439.25;144992;638;6004;-81
2021/08/22 09:22:06;;;;;;;6.35;4.75;;;;;;;30.73;46.08;101435.56;144992;655;6004;-80
2021/08/22 09:25:22;;;;;;;6.47;4.45;;;;;;;30.50;46.14;101431.19;144992;611;6004;-79
2021/08/22 09:28:25;;;;;;;5.55;5.00;;;;;;;30.31;46.93;101433.75;144992;606;6004;-79
2021/08/22 09:31:59;;;;;;;8.02;4.53;;;;;;;30.15;47.73;101436.19;144992;643;6004;-81
2021/08/22 09:35:05;;;;;;;7.18;4.95;;;;;;;30.05;47.84;101434.81;144992;574;6002;-78
2021/08/22 09:38:44;;;;;;;5.53;5.00;;;;;;;29.94;48.86;101437.91;144992;581;6004;-80
2021/08/22 09:41:58;;;;;;;8.70;5.35;;;;;;;30.07;48.22;101422.22;144992;583;6004;-80
2021/08/22 09:45:02;;;;;;;5.68;4.68;;;;;;;30.17;47.88;101427.16;144992;605;6004;-79
2021/08/22 09:48:10;;;;;;;5.28;4.70;;;;;;;30.21;47.63;101423.41;144992;567;6004;-80
2021/08/22 09:51:28;;;;;;;4.12;3.75;;;;;;;30.33;46.87;101422.03;144992;592;6004;-80
2021/08/22 09:54:32;;;;;;;5.25;4.40;;;;;;;30.48;46.20;101415.19;144992;645;6004;-80
2021/08/22 09:57:42;;;;;;;4.35;3.95;;;;;;;30.60;45.66;101408.41;144992;587;6004;-80
2021/08/22 10:01:00;;;;;;;5.07;3.70;;;;;;;30.64;44.53;101407.38;144992;573;6005;-78
2021/08/22 10:04:11;;;;;;;4.28;3.80;;;;;;;30.69;43.72;101405.34;144992;646;6002;-80
2021/08/22 10:07:21;;;;;;;6.18;3.67;;;;;;;30.80;42.53;101399.53;144992;665;6004;-80
2021/08/22 10:09:57;;;;;;;5.28;3.45;;;;;;;30.79;42.62;101404.94;144992;603;6002;-80
2021/08/22 10:12:26;;;;;;;5.72;4.05;;;;;;;30.88;41.75;101400.03;144992;580;6002;-80
2021/08/22 10:14:53;;;;;;;4.18;3.40;;;;;;;30.95;40.89;101406.00;144992;570;6003;-80
2021/08/22 10:17:26;;;;;;;4.15;3.72;;;;;;;30.94;40.92;101406.91;144992;608;6002;-79
2021/08/22 10:19:54;;;;;;;5.55;3.90;;;;;;;30.88;42.42;101405.41;144992;663;6002;-80
2021/08/22 10:22:37;;;;;;;6.25;4.10;;;;;;;30.85;42.59;101399.31;144992;589;6002;-80
2021/08/22 10:25:12;;;;;;;4.25;3.67;;;;;;;30.99;41.10;101401.38;144992;703;6002;-80
2021/08/22 10:27:58;;;;;;;4.35;3.90;;;;;;;31.02;41.53;101409.28;144992;604;6002;-80
2021/08/22 10:30:26;;;;;;;5.65;4.30;;;;;;;31.00;41.31;101395.97;144992;587;6004;-80
2021/08/22 10:33:18;;;;;;;5.60;4.22;;;;;;;31.04;42.52;101404.75;144992;626;6004;-78
2021/08/22 10:35:45;;;;;;;5.25;3.85;;;;;;;31.03;43.16;101411.03;144992;596;6002;-80
2021/08/22 10:38:25;;;;;;;4.32;3.85;;;;;;;31.07;43.32;101409.97;144992;593;6002;-80
2021/08/22 10:40:53;;;;;;;5.40;3.97;;;;;;;30.98;44.28;101405.88;144991;570;6002;-81
2021/08/22 10:43:31;;;;;;;7.60;4.78;;;;;;;30.81;44.32;101417.31;144992;579;6002;-81
2021/08/22 10:45:59;;;;;;;11.88;7.07;;;;;;;30.74;44.65;101411.38;144992;635;6002;-78
2021/08/22 10:48:46;;;;;;;4.20;3.90;;;;;;;30.95;44.10;101410.50;144992;627;6002;-80
2021/08/22 10:51:12;;;;;;;5.93;4.10;;;;;;;30.98;44.32;101402.34;144991;642;6000;-80
2021/08/22 10:53:43;;;;;;;5.22;3.90;;;;;;;30.99;43.25;101399.59;144992;650;6002;-80
2021/08/22 10:56:44;;;;;;;5.28;4.07;;;;;;;30.95;42.37;101403.31;144992;579;6002;-80
2021/08/22 10:59:10;;;;;;;9.77;4.22;;;;;;;31.01;41.99;101407.56;144992;582;6004;-79
2021/08/22 11:01:38;;;;;;;4.45;4.00;;;;;;;30.97;42.08;101396.09;144992;705;6004;-78
2021/08/22 11:04:23;;;;;;;4.07;3.67;;;;;;;30.96;41.48;101398.81;144991;611;6000;-80
2021/08/22 11:06:58;;;;;;;3.87;3.42;;;;;;;30.93;41.21;101386.44;144992;583;6004;-78
2021/08/22 11:09:47;;;;;;;3.90;3.58;;;;;;;31.00;40.28;101393.28;144992;618;6004;-76
2021/08/22 11:12:42;;;;;;;9.25;3.83;;;;;;;30.98;40.92;101395.16;144992;568;6004;-79
2021/08/22 11:15:22;;;;;;;4.75;4.30;;;;;;;30.97;39.80;101390.72;144992;564;6003;-81
2021/08/22 11:17:51;;;;;;;4.05;3.50;;;;;;;31.16;40.14;101389.91;144992;641;6002;-80
2021/08/22 11:20:19;;;;;;;11.50;9.63;;;;;;;31.17;40.03;101391.66;144992;609;6002;-80
2021/08/22 11:22:47;;;;;;;3.87;3.40;;;;;;;31.23;38.31;101380.66;144992;580;6002;-79
2021/08/22 11:25:14;;;;;;;5.15;3.20;;;;;;;31.26;38.65;101376.00;144992;662;6002;-80
2021/08/22 11:27:41;;;;;;;4.53;3.50;;;;;;;31.15;37.79;101382.78;144992;564;6002;-78
2021/08/22 11:30:10;;;;;;;5.70;3.72;;;;;;;31.21;37.86;101378.03;144992;616;6002;-79
2021/08/22 11:32:37;;;;;;;5.45;3.45;;;;;;;31.26;36.80;101375.09;144992;616;6002;-80
2021/08/22 11:35:17;;;;;;;7.70;3.47;;;;;;;31.31;38.61;101377.56;144992;615;6002;-80
2021/08/22 11:37:45;;;;;;;6.85;3.85;;;;;;;31.40;39.31;101383.41;144992;572;6002;-79
2021/08/22 11:40:17;;;;;;;4.40;3.60;;;;;;;31.35;40.59;101389.91;144992;631;6002;-79
2021/08/22 11:42:45;;;;;;;6.15;3.40;;;;;;;31.31;40.21;101382.94;144992;733;6002;-79
2021/08/22 11:45:14;;;;;;;3.75;3.35;;;;;;;31.18;40.37;101383.53;144992;651;6002;-79
2021/08/22 11:47:42;;;;;;;4.75;3.65;;;;;;;31.13;39.99;101379.31;144992;687;6002;-81
2021/08/22 11:50:11;;;;;;;7.03;3.85;;;;;;;31.16;39.48;101379.19;144992;569;6002;-76
2021/08/22 11:52:41;;;;;;;4.05;3.12;;;;;;;31.02;38.02;101374.44;144993;569;6002;-80
2021/08/22 11:55:09;;;;;;;6.55;3.65;;;;;;;31.03;39.49;101366.31;144993;640;6002;-80
2021/08/22 11:57:35;;;;;;;4.05;3.58;;;;;;;31.00;39.59;101361.09;144993;680;6002;-80
2021/08/22 12:00:11;;;;;;;5.05;3.67;;;;;;;31.22;38.93;101362.81;144993;565;6002;-79
2021/08/22 12:02:38;;;;;;;3.70;3.40;;;;;;;31.37;37.25;101356.72;144993;608;6002;-81